sensor_id;sensor_type;location;lat;lon;timestamp;temperature;humidity
23540;DHT22;11947;50.810;4.394;2022-10-30T00:02:05;17.30;99.90
23540;DHT22;11947;50.810;4.394;2022-10-30T00:04:31;17.30;99.90
23540;DHT22;11947;50.810;4.394;2022-10-30T00:06:57;17.30;99.90
23540;DHT22;11947;50.810;4.394;2022-10-30T00:09:22;17.30;99.90
23540;DHT22;11947;50.810;4.394;2022-10-30T00:11:48;17.30;99.90
23540;DHT22;11947;50.810;4.394;2022-10-30T00:14:14;17.30;99.90
23540;DHT22;11947;50.810;4.394;2022-10-30T00:16:39;17.20;99.90
23540;DHT22;11947;50.810;4.394;2022-10-30T00:19:05;17.20;99.90
23540;DHT22;11947;50.810;4.394;2022-10-30T00:21:31;17.30;99.90
23540;DHT22;11947;50.810;4.394;2022-10-30T00:23:56;17.10;99.90
23540;DHT22;11947;50.810;4.394;2022-10-30T00:26:23;17.00;99.90
23540;DHT22;11947;50.810;4.394;2022-10-30T00:28:54;17.00;99.90
23540;DHT22;11947;50.810;4.394;2022-10-30T00:31:20;17.00;99.90
23540;DHT22;11947;50.810;4.394;2022-10-30T00:33:49;17.00;99.90
23540;DHT22;11947;50.810;4.394;2022-10-30T00:36:15;17.00;99.90
23540;DHT22;11947;50.810;4.394;2022-10-30T00:38:40;17.00;99.90
23540;DHT22;11947;50.810;4.394;2022-10-30T00:41:06;17.00;99.90
23540;DHT22;11947;50.810;4.394;2022-10-30T00:43:37;16.90;99.90
23540;DHT22;11947;50.810;4.394;2022-10-30T00:48:46;16.90;99.90
23540;DHT22;11947;50.810;4.394;2022-10-30T00:51:13;16.90;99.90
23540;DHT22;11947;50.810;4.394;2022-10-30T00:53:39;16.90;99.90
23540;DHT22;11947;50.810;4.394;2022-10-30T00:56:07;16.70;99.90
23540;DHT22;11947;50.810;4.394;2022-10-30T00:58:38;16.70;99.90
23540;DHT22;11947;50.810;4.394;2022-10-30T01:01:13;16.60;99.90
23540;DHT22;11947;50.810;4.394;2022-10-30T01:03:40;16.60;99.90
23540;DHT22;11947;50.810;4.394;2022-10-30T01:06:09;16.60;99.90
23540;DHT22;11947;50.810;4.394;2022-10-30T01:08:36;16.60;99.90
23540;DHT22;11947;50.810;4.394;2022-10-30T01:11:03;16.50;99.90
23540;DHT22;11947;50.810;4.394;2022-10-30T01:13:30;16.40;99.90
23540;DHT22;11947;50.810;4.394;2022-10-30T01:16:18;16.40;99.90
23540;DHT22;11947;50.810;4.394;2022-10-30T01:18:58;16.40;99.90
23540;DHT22;11947;50.810;4.394;2022-10-30T01:21:43;16.40;99.90
23540;DHT22;11947;50.810;4.394;2022-10-30T01:24:27;16.40;99.90
23540;DHT22;11947;50.810;4.394;2022-10-30T01:27:12;16.40;99.90
23540;DHT22;11947;50.810;4.394;2022-10-30T01:30:10;16.40;99.90
23540;DHT22;11947;50.810;4.394;2022-10-30T01:38:33;16.20;99.90
23540;DHT22;11947;50.810;4.394;2022-10-30T01:41:00;16.20;99.90
23540;DHT22;11947;50.810;4.394;2022-10-30T01:43:26;16.20;99.90
23540;DHT22;11947;50.810;4.394;2022-10-30T01:51:26;16.10;99.90
23540;DHT22;11947;50.810;4.394;2022-10-30T01:56:43;16.10;99.90
23540;DHT22;11947;50.810;4.394;2022-10-30T01:59:34;16.00;99.90
23540;DHT22;11947;50.810;4.394;2022-10-30T02:02:01;16.00;99.90
23540;DHT22;11947;50.810;4.394;2022-10-30T02:04:30;16.10;99.90
23540;DHT22;11947;50.810;4.394;2022-10-30T02:06:56;16.00;99.90
23540;DHT22;11947;50.810;4.394;2022-10-30T02:09:22;16.00;99.90
23540;DHT22;11947;50.810;4.394;2022-10-30T02:11:49;15.90;99.90
23540;DHT22;11947;50.810;4.394;2022-10-30T02:14:23;15.90;99.90
23540;DHT22;11947;50.810;4.394;2022-10-30T02:16:52;15.90;99.90
23540;DHT22;11947;50.810;4.394;2022-10-30T02:19:19;16.00;99.90
23540;DHT22;11947;50.810;4.394;2022-10-30T02:21:46;15.90;99.90
23540;DHT22;11947;50.810;4.394;2022-10-30T02:24:11;15.90;99.90
23540;DHT22;11947;50.810;4.394;2022-10-30T02:26:37;15.90;99.90
23540;DHT22;11947;50.810;4.394;2022-10-30T02:29:03;15.80;99.90
23540;DHT22;11947;50.810;4.394;2022-10-30T02:31:29;15.80;99.90
23540;DHT22;11947;50.810;4.394;2022-10-30T02:33:54;15.80;99.90
23540;DHT22;11947;50.810;4.394;2022-10-30T02:36:20;15.80;99.90
23540;DHT22;11947;50.810;4.394;2022-10-30T02:38:46;15.80;99.90
23540;DHT22;11947;50.810;4.394;2022-10-30T02:41:11;15.80;99.90
23540;DHT22;11947;50.810;4.394;2022-10-30T02:43:37;15.80;99.90
23540;DHT22;11947;50.810;4.394;2022-10-30T02:46:04;15.70;99.90
23540;DHT22;11947;50.810;4.394;2022-10-30T02:48:30;15.60;99.90
23540;DHT22;11947;50.810;4.394;2022-10-30T02:51:01;15.70;99.90
23540;DHT22;11947;50.810;4.394;2022-10-30T02:53:26;15.60;99.90
23540;DHT22;11947;50.810;4.394;2022-10-30T02:55:52;15.60;99.90
23540;DHT22;11947;50.810;4.394;2022-10-30T02:58:18;15.60;99.90
23540;DHT22;11947;50.810;4.394;2022-10-30T03:00:44;15.60;99.90
23540;DHT22;11947;50.810;4.394;2022-10-30T03:03:11;15.50;99.90
23540;DHT22;11947;50.810;4.394;2022-10-30T03:05:36;15.50;99.90
23540;DHT22;11947;50.810;4.394;2022-10-30T03:08:02;15.50;99.90
23540;DHT22;11947;50.810;4.394;2022-10-30T03:10:29;15.50;99.90
23540;DHT22;11947;50.810;4.394;2022-10-30T03:12:54;15.50;99.90
23540;DHT22;11947;50.810;4.394;2022-10-30T03:15:20;15.50;99.90
23540;DHT22;11947;50.810;4.394;2022-10-30T03:17:45;15.50;99.90
23540;DHT22;11947;50.810;4.394;2022-10-30T03:20:12;15.50;99.90
23540;DHT22;11947;50.810;4.394;2022-10-30T03:22:37;15.50;99.90
23540;DHT22;11947;50.810;4.394;2022-10-30T03:25:03;15.50;99.90
23540;DHT22;11947;50.810;4.394;2022-10-30T03:27:29;15.50;99.90
23540;DHT22;11947;50.810;4.394;2022-10-30T03:29:55;15.60;99.90
23540;DHT22;11947;50.810;4.394;2022-10-30T03:32:21;15.50;99.90
23540;DHT22;11947;50.810;4.394;2022-10-30T03:34:46;15.50;99.90
23540;DHT22;11947;50.810;4.394;2022-10-30T03:37:12;15.50;99.90
23540;DHT22;11947;50.810;4.394;2022-10-30T03:39:38;15.50;99.90
23540;DHT22;11947;50.810;4.394;2022-10-30T03:42:03;15.50;99.90
23540;DHT22;11947;50.810;4.394;2022-10-30T03:44:29;15.50;99.90
23540;DHT22;11947;50.810;4.394;2022-10-30T03:46:55;15.50;99.90
23540;DHT22;11947;50.810;4.394;2022-10-30T03:49:20;15.40;99.90
23540;DHT22;11947;50.810;4.394;2022-10-30T03:51:46;15.40;99.90
23540;DHT22;11947;50.810;4.394;2022-10-30T03:54:12;15.40;99.90
23540;DHT22;11947;50.810;4.394;2022-10-30T03:56:37;15.40;99.90
23540;DHT22;11947;50.810;4.394;2022-10-30T03:59:03;15.30;99.90
23540;DHT22;11947;50.810;4.394;2022-10-30T04:01:28;15.40;99.90
23540;DHT22;11947;50.810;4.394;2022-10-30T04:03:54;15.30;99.90
23540;DHT22;11947;50.810;4.394;2022-10-30T04:06:19;15.30;99.90
23540;DHT22;11947;50.810;4.394;2022-10-30T04:08:45;15.30;99.90
23540;DHT22;11947;50.810;4.394;2022-10-30T04:11:11;15.20;99.90
23540;DHT22;11947;50.810;4.394;2022-10-30T04:13:36;15.30;99.90
23540;DHT22;11947;50.810;4.394;2022-10-30T04:16:03;15.20;99.90
23540;DHT22;11947;50.810;4.394;2022-10-30T04:18:28;15.20;99.90
23540;DHT22;11947;50.810;4.394;2022-10-30T04:20:54;15.20;99.90
23540;DHT22;11947;50.810;4.394;2022-10-30T04:23:21;15.20;99.90
23540;DHT22;11947;50.810;4.394;2022-10-30T04:25:47;15.20;99.90
23540;DHT22;11947;50.810;4.394;2022-10-30T04:28:13;15.20;99.90
23540;DHT22;11947;50.810;4.394;2022-10-30T04:30:38;15.10;99.90
23540;DHT22;11947;50.810;4.394;2022-10-30T04:33:07;15.10;99.90
23540;DHT22;11947;50.810;4.394;2022-10-30T04:35:35;15.10;99.90
23540;DHT22;11947;50.810;4.394;2022-10-30T04:38:03;15.00;99.90
23540;DHT22;11947;50.810;4.394;2022-10-30T04:40:32;15.00;99.90
23540;DHT22;11947;50.810;4.394;2022-10-30T04:42:59;15.00;99.90
23540;DHT22;11947;50.810;4.394;2022-10-30T04:45:25;14.90;99.90
23540;DHT22;11947;50.810;4.394;2022-10-30T04:47:51;15.00;99.90
23540;DHT22;11947;50.810;4.394;2022-10-30T04:50:18;15.00;99.90
23540;DHT22;11947;50.810;4.394;2022-10-30T04:52:43;15.00;99.90
23540;DHT22;11947;50.810;4.394;2022-10-30T04:55:10;15.00;99.90
23540;DHT22;11947;50.810;4.394;2022-10-30T04:57:36;15.00;99.90
23540;DHT22;11947;50.810;4.394;2022-10-30T05:00:07;15.00;99.90
23540;DHT22;11947;50.810;4.394;2022-10-30T05:02:36;14.90;99.90
23540;DHT22;11947;50.810;4.394;2022-10-30T05:05:02;14.90;99.90
23540;DHT22;11947;50.810;4.394;2022-10-30T05:07:28;14.90;99.90
23540;DHT22;11947;50.810;4.394;2022-10-30T05:09:53;14.90;99.90
23540;DHT22;11947;50.810;4.394;2022-10-30T05:12:20;14.90;99.90
23540;DHT22;11947;50.810;4.394;2022-10-30T05:14:46;14.80;99.90
23540;DHT22;11947;50.810;4.394;2022-10-30T05:17:12;14.70;99.90
23540;DHT22;11947;50.810;4.394;2022-10-30T05:19:37;14.80;99.90
23540;DHT22;11947;50.810;4.394;2022-10-30T05:22:03;14.80;99.90
23540;DHT22;11947;50.810;4.394;2022-10-30T05:24:29;14.70;99.90
23540;DHT22;11947;50.810;4.394;2022-10-30T05:26:55;14.70;99.90
23540;DHT22;11947;50.810;4.394;2022-10-30T05:29:20;14.70;99.90
23540;DHT22;11947;50.810;4.394;2022-10-30T05:31:46;14.70;99.90
23540;DHT22;11947;50.810;4.394;2022-10-30T05:34:14;14.70;99.90
23540;DHT22;11947;50.810;4.394;2022-10-30T05:36:40;14.60;99.90
23540;DHT22;11947;50.810;4.394;2022-10-30T05:39:05;14.60;99.90
23540;DHT22;11947;50.810;4.394;2022-10-30T05:41:31;14.50;99.90
23540;DHT22;11947;50.810;4.394;2022-10-30T05:43:57;14.60;99.90
23540;DHT22;11947;50.810;4.394;2022-10-30T05:46:22;14.50;99.90
23540;DHT22;11947;50.810;4.394;2022-10-30T05:48:48;14.50;99.90
23540;DHT22;11947;50.810;4.394;2022-10-30T05:51:13;14.50;99.90
23540;DHT22;11947;50.810;4.394;2022-10-30T05:53:39;14.50;99.90
23540;DHT22;11947;50.810;4.394;2022-10-30T05:56:05;14.50;99.90
23540;DHT22;11947;50.810;4.394;2022-10-30T05:58:31;14.50;99.90
23540;DHT22;11947;50.810;4.394;2022-10-30T06:00:56;14.50;99.90
23540;DHT22;11947;50.810;4.394;2022-10-30T06:03:22;14.40;99.90
23540;DHT22;11947;50.810;4.394;2022-10-30T06:05:47;14.50;99.90
23540;DHT22;11947;50.810;4.394;2022-10-30T06:08:15;14.40;99.90
23540;DHT22;11947;50.810;4.394;2022-10-30T06:10:41;14.40;99.90
23540;DHT22;11947;50.810;4.394;2022-10-30T06:13:06;14.40;99.90
23540;DHT22;11947;50.810;4.394;2022-10-30T06:15:32;14.30;99.90
23540;DHT22;11947;50.810;4.394;2022-10-30T06:17:58;14.30;99.90
23540;DHT22;11947;50.810;4.394;2022-10-30T06:20:27;14.40;99.90
23540;DHT22;11947;50.810;4.394;2022-10-30T06:23:01;14.30;99.90
23540;DHT22;11947;50.810;4.394;2022-10-30T06:25:30;14.30;99.90
23540;DHT22;11947;50.810;4.394;2022-10-30T06:27:55;14.30;99.90
23540;DHT22;11947;50.810;4.394;2022-10-30T06:30:21;14.30;99.90
23540;DHT22;11947;50.810;4.394;2022-10-30T06:32:48;14.30;99.90
23540;DHT22;11947;50.810;4.394;2022-10-30T06:35:13;14.30;99.90
23540;DHT22;11947;50.810;4.394;2022-10-30T06:37:49;14.30;99.90
23540;DHT22;11947;50.810;4.394;2022-10-30T06:40:15;14.30;99.90
23540;DHT22;11947;50.810;4.394;2022-10-30T06:42:45;14.30;99.90
23540;DHT22;11947;50.810;4.394;2022-10-30T06:45:11;14.20;99.90
23540;DHT22;11947;50.810;4.394;2022-10-30T06:47:38;14.20;99.90
23540;DHT22;11947;50.810;4.394;2022-10-30T06:50:06;14.10;99.90
23540;DHT22;11947;50.810;4.394;2022-10-30T06:52:32;14.20;99.90
23540;DHT22;11947;50.810;4.394;2022-10-30T06:54:58;14.30;99.90
23540;DHT22;11947;50.810;4.394;2022-10-30T06:57:23;14.30;99.90
23540;DHT22;11947;50.810;4.394;2022-10-30T06:59:49;14.40;99.90
23540;DHT22;11947;50.810;4.394;2022-10-30T07:02:14;14.50;99.90
23540;DHT22;11947;50.810;4.394;2022-10-30T07:04:40;14.50;99.90
23540;DHT22;11947;50.810;4.394;2022-10-30T07:07:06;14.50;99.90
23540;DHT22;11947;50.810;4.394;2022-10-30T07:09:31;14.50;99.90
23540;DHT22;11947;50.810;4.394;2022-10-30T07:11:57;14.60;99.90
23540;DHT22;11947;50.810;4.394;2022-10-30T07:14:23;14.50;99.90
23540;DHT22;11947;50.810;4.394;2022-10-30T07:16:48;14.50;99.90
23540;DHT22;11947;50.810;4.394;2022-10-30T07:19:14;14.50;99.90
23540;DHT22;11947;50.810;4.394;2022-10-30T07:21:40;14.50;99.90
23540;DHT22;11947;50.810;4.394;2022-10-30T07:24:06;14.60;99.90
23540;DHT22;11947;50.810;4.394;2022-10-30T07:26:32;14.70;99.90
23540;DHT22;11947;50.810;4.394;2022-10-30T07:29:02;14.80;99.90
23540;DHT22;11947;50.810;4.394;2022-10-30T07:31:28;14.90;99.90
23540;DHT22;11947;50.810;4.394;2022-10-30T07:33:54;15.00;99.90
23540;DHT22;11947;50.810;4.394;2022-10-30T07:36:19;15.10;99.90
23540;DHT22;11947;50.810;4.394;2022-10-30T07:38:47;15.20;99.90
23540;DHT22;11947;50.810;4.394;2022-10-30T07:41:13;15.20;99.90
23540;DHT22;11947;50.810;4.394;2022-10-30T07:43:39;15.30;99.90
23540;DHT22;11947;50.810;4.394;2022-10-30T07:46:04;15.40;99.90
23540;DHT22;11947;50.810;4.394;2022-10-30T07:48:30;15.50;99.90
23540;DHT22;11947;50.810;4.394;2022-10-30T07:50:56;15.50;99.90
23540;DHT22;11947;50.810;4.394;2022-10-30T07:53:21;15.50;99.90
23540;DHT22;11947;50.810;4.394;2022-10-30T07:55:47;15.70;99.90
23540;DHT22;11947;50.810;4.394;2022-10-30T07:58:13;15.70;99.90
23540;DHT22;11947;50.810;4.394;2022-10-30T08:00:42;15.90;99.90
23540;DHT22;11947;50.810;4.394;2022-10-30T08:03:08;16.00;99.90
23540;DHT22;11947;50.810;4.394;2022-10-30T08:05:35;16.20;99.90
23540;DHT22;11947;50.810;4.394;2022-10-30T08:08:00;16.30;99.90
23540;DHT22;11947;50.810;4.394;2022-10-30T08:10:27;16.50;99.90
23540;DHT22;11947;50.810;4.394;2022-10-30T08:12:53;16.60;99.90
23540;DHT22;11947;50.810;4.394;2022-10-30T08:15:20;16.70;99.90
23540;DHT22;11947;50.810;4.394;2022-10-30T08:17:50;16.80;99.90
23540;DHT22;11947;50.810;4.394;2022-10-30T08:22:50;17.00;99.90
23540;DHT22;11947;50.810;4.394;2022-10-30T08:25:19;17.10;99.90
23540;DHT22;11947;50.810;4.394;2022-10-30T08:28:01;17.20;99.90
23540;DHT22;11947;50.810;4.394;2022-10-30T08:30:30;17.30;99.90
23540;DHT22;11947;50.810;4.394;2022-10-30T08:33:05;17.50;99.90
23540;DHT22;11947;50.810;4.394;2022-10-30T08:35:31;17.60;99.90
23540;DHT22;11947;50.810;4.394;2022-10-30T08:37:58;17.60;99.90
23540;DHT22;11947;50.810;4.394;2022-10-30T08:40:25;17.80;99.90
23540;DHT22;11947;50.810;4.394;2022-10-30T08:42:52;17.90;99.90
23540;DHT22;11947;50.810;4.394;2022-10-30T08:45:19;18.00;99.90
23540;DHT22;11947;50.810;4.394;2022-10-30T08:47:45;18.00;99.90
23540;DHT22;11947;50.810;4.394;2022-10-30T08:50:10;18.10;99.90
23540;DHT22;11947;50.810;4.394;2022-10-30T08:52:36;18.30;99.90
23540;DHT22;11947;50.810;4.394;2022-10-30T08:55:02;18.40;99.90
23540;DHT22;11947;50.810;4.394;2022-10-30T08:57:28;18.40;99.90
23540;DHT22;11947;50.810;4.394;2022-10-30T08:59:56;18.60;99.90
23540;DHT22;11947;50.810;4.394;2022-10-30T09:02:21;18.70;99.90
23540;DHT22;11947;50.810;4.394;2022-10-30T09:04:47;18.80;99.90
23540;DHT22;11947;50.810;4.394;2022-10-30T09:07:12;18.70;99.90
23540;DHT22;11947;50.810;4.394;2022-10-30T09:09:38;18.70;99.90
23540;DHT22;11947;50.810;4.394;2022-10-30T09:12:04;18.80;99.90
23540;DHT22;11947;50.810;4.394;2022-10-30T09:14:29;18.90;99.90
23540;DHT22;11947;50.810;4.394;2022-10-30T09:16:55;19.00;99.90
23540;DHT22;11947;50.810;4.394;2022-10-30T09:19:21;19.10;99.90
23540;DHT22;11947;50.810;4.394;2022-10-30T09:21:46;19.20;99.90
23540;DHT22;11947;50.810;4.394;2022-10-30T09:24:13;19.20;99.90
23540;DHT22;11947;50.810;4.394;2022-10-30T09:26:39;19.30;99.90
23540;DHT22;11947;50.810;4.394;2022-10-30T09:29:04;19.40;99.90
23540;DHT22;11947;50.810;4.394;2022-10-30T09:31:32;19.60;99.90
23540;DHT22;11947;50.810;4.394;2022-10-30T09:33:59;19.70;99.90
23540;DHT22;11947;50.810;4.394;2022-10-30T09:36:25;19.80;99.90
23540;DHT22;11947;50.810;4.394;2022-10-30T09:38:50;20.00;99.90
23540;DHT22;11947;50.810;4.394;2022-10-30T09:47:18;20.40;99.90
23540;DHT22;11947;50.810;4.394;2022-10-30T09:50:20;20.50;99.90
23540;DHT22;11947;50.810;4.394;2022-10-30T09:52:45;20.50;99.90
23540;DHT22;11947;50.810;4.394;2022-10-30T09:59:14;21.20;99.90
23540;DHT22;11947;50.810;4.394;2022-10-30T10:01:55;21.30;99.90
23540;DHT22;11947;50.810;4.394;2022-10-30T10:04:27;21.40;99.90
23540;DHT22;11947;50.810;4.394;2022-10-30T10:07:06;21.70;99.90
23540;DHT22;11947;50.810;4.394;2022-10-30T10:09:34;22.00;99.90
23540;DHT22;11947;50.810;4.394;2022-10-30T10:12:05;22.30;99.90
23540;DHT22;11947;50.810;4.394;2022-10-30T10:14:35;22.50;99.90
23540;DHT22;11947;50.810;4.394;2022-10-30T10:17:03;22.60;99.90
23540;DHT22;11947;50.810;4.394;2022-10-30T10:19:56;22.70;99.90
23540;DHT22;11947;50.810;4.394;2022-10-30T10:22:37;22.80;99.90
23540;DHT22;11947;50.810;4.394;2022-10-30T10:25:07;22.60;99.90
23540;DHT22;11947;50.810;4.394;2022-10-30T10:33:06;22.70;99.90
23540;DHT22;11947;50.810;4.394;2022-10-30T10:35:54;22.80;99.90
23540;DHT22;11947;50.810;4.394;2022-10-30T10:44:15;22.00;99.90
23540;DHT22;11947;50.810;4.394;2022-10-30T10:51:44;22.00;99.90
23540;DHT22;11947;50.810;4.394;2022-10-30T10:54:26;21.90;99.90
23540;DHT22;11947;50.810;4.394;2022-10-30T10:56:53;21.90;99.90
23540;DHT22;11947;50.810;4.394;2022-10-30T11:04:39;22.40;99.90
23540;DHT22;11947;50.810;4.394;2022-10-30T11:07:23;22.60;99.90
23540;DHT22;11947;50.810;4.394;2022-10-30T11:09:53;22.60;99.90
23540;DHT22;11947;50.810;4.394;2022-10-30T11:12:25;22.80;99.90
23540;DHT22;11947;50.810;4.394;2022-10-30T11:14:52;22.90;99.90
23540;DHT22;11947;50.810;4.394;2022-10-30T11:17:25;23.10;99.90
23540;DHT22;11947;50.810;4.394;2022-10-30T11:20:00;23.40;99.90
23540;DHT22;11947;50.810;4.394;2022-10-30T11:22:33;23.80;99.90
23540;DHT22;11947;50.810;4.394;2022-10-30T11:25:24;24.00;99.90
23540;DHT22;11947;50.810;4.394;2022-10-30T11:28:02;24.30;99.90
23540;DHT22;11947;50.810;4.394;2022-10-30T11:30:29;24.50;99.90
23540;DHT22;11947;50.810;4.394;2022-10-30T11:32:55;24.60;99.90
23540;DHT22;11947;50.810;4.394;2022-10-30T11:35:22;24.80;99.90
23540;DHT22;11947;50.810;4.394;2022-10-30T11:40:46;25.00;99.90
23540;DHT22;11947;50.810;4.394;2022-10-30T11:43:14;25.20;99.90
23540;DHT22;11947;50.810;4.394;2022-10-30T11:45:43;25.30;99.90
23540;DHT22;11947;50.810;4.394;2022-10-30T11:48:32;25.30;99.90
23540;DHT22;11947;50.810;4.394;2022-10-30T11:51:02;25.10;99.90
23540;DHT22;11947;50.810;4.394;2022-10-30T11:53:41;25.00;99.90
23540;DHT22;11947;50.810;4.394;2022-10-30T11:56:14;24.90;99.90
23540;DHT22;11947;50.810;4.394;2022-10-30T11:58:44;24.60;99.90
23540;DHT22;11947;50.810;4.394;2022-10-30T12:07:35;24.10;99.90
23540;DHT22;11947;50.810;4.394;2022-10-30T12:10:01;23.90;99.90
23540;DHT22;11947;50.810;4.394;2022-10-30T12:12:32;24.20;99.90
23540;DHT22;11947;50.810;4.394;2022-10-30T12:15:18;24.30;99.90
23540;DHT22;11947;50.810;4.394;2022-10-30T12:18:03;24.50;99.90
23540;DHT22;11947;50.810;4.394;2022-10-30T12:20:30;24.80;99.90
23540;DHT22;11947;50.810;4.394;2022-10-30T12:23:09;25.00;99.90
23540;DHT22;11947;50.810;4.394;2022-10-30T12:25:35;24.60;99.90
23540;DHT22;11947;50.810;4.394;2022-10-30T12:28:13;24.60;99.90
23540;DHT22;11947;50.810;4.394;2022-10-30T12:31:11;24.90;99.90
23540;DHT22;11947;50.810;4.394;2022-10-30T12:36:14;26.40;99.90
23540;DHT22;11947;50.810;4.394;2022-10-30T12:41:33;27.60;99.90
23540;DHT22;11947;50.810;4.394;2022-10-30T12:49:22;29.40;99.90
23540;DHT22;11947;50.810;4.394;2022-10-30T12:51:59;31.00;99.90
23540;DHT22;11947;50.810;4.394;2022-10-30T12:57:04;32.70;99.90
23540;DHT22;11947;50.810;4.394;2022-10-30T12:59:38;33.60;99.90
23540;DHT22;11947;50.810;4.394;2022-10-30T13:05:38;36.00;98.20
23540;DHT22;11947;50.810;4.394;2022-10-30T13:13:36;37.20;90.60
23540;DHT22;11947;50.810;4.394;2022-10-30T13:16:09;37.20;90.20
23540;DHT22;11947;50.810;4.394;2022-10-30T13:18:36;37.00;88.00
23540;DHT22;11947;50.810;4.394;2022-10-30T13:23:56;35.40;89.10
23540;DHT22;11947;50.810;4.394;2022-10-30T13:26:40;33.80;91.60
23540;DHT22;11947;50.810;4.394;2022-10-30T13:34:54;29.80;96.60
23540;DHT22;11947;50.810;4.394;2022-10-30T13:40:30;28.00;99.00
23540;DHT22;11947;50.810;4.394;2022-10-30T13:43:19;27.00;99.90
23540;DHT22;11947;50.810;4.394;2022-10-30T13:52:19;25.30;99.90
23540;DHT22;11947;50.810;4.394;2022-10-30T14:01:01;24.30;99.90
23540;DHT22;11947;50.810;4.394;2022-10-30T14:11:27;23.00;99.90
23540;DHT22;11947;50.810;4.394;2022-10-30T14:14:25;22.60;99.90
23540;DHT22;11947;50.810;4.394;2022-10-30T14:17:14;22.40;99.90
23540;DHT22;11947;50.810;4.394;2022-10-30T14:22:33;22.00;99.90
23540;DHT22;11947;50.810;4.394;2022-10-30T14:25:01;22.00;99.90
23540;DHT22;11947;50.810;4.394;2022-10-30T14:27:32;22.00;99.90
23540;DHT22;11947;50.810;4.394;2022-10-30T14:29:59;21.90;99.90
23540;DHT22;11947;50.810;4.394;2022-10-30T14:39:50;21.60;99.90
23540;DHT22;11947;50.810;4.394;2022-10-30T14:42:39;21.50;99.90
23540;DHT22;11947;50.810;4.394;2022-10-30T14:45:10;21.30;99.90
23540;DHT22;11947;50.810;4.394;2022-10-30T14:47:59;21.20;99.90
23540;DHT22;11947;50.810;4.394;2022-10-30T14:58:41;20.90;99.90
23540;DHT22;11947;50.810;4.394;2022-10-30T15:06:56;20.50;99.90
23540;DHT22;11947;50.810;4.394;2022-10-30T15:09:51;20.40;99.90
23540;DHT22;11947;50.810;4.394;2022-10-30T15:15:14;20.30;99.90
23540;DHT22;11947;50.810;4.394;2022-10-30T15:17:46;20.30;99.90
23540;DHT22;11947;50.810;4.394;2022-10-30T15:20:22;20.40;99.90
23540;DHT22;11947;50.810;4.394;2022-10-30T15:22:53;20.40;99.90
23540;DHT22;11947;50.810;4.394;2022-10-30T15:25:21;20.40;99.90
23540;DHT22;11947;50.810;4.394;2022-10-30T15:27:54;20.40;99.90
23540;DHT22;11947;50.810;4.394;2022-10-30T15:30:25;20.40;99.90
23540;DHT22;11947;50.810;4.394;2022-10-30T15:32:52;20.20;99.90
23540;DHT22;11947;50.810;4.394;2022-10-30T15:35:25;20.10;99.90
23540;DHT22;11947;50.810;4.394;2022-10-30T15:38:09;20.00;99.90
23540;DHT22;11947;50.810;4.394;2022-10-30T15:40:38;19.90;99.90
23540;DHT22;11947;50.810;4.394;2022-10-30T15:43:06;19.80;99.90
23540;DHT22;11947;50.810;4.394;2022-10-30T15:45:35;19.70;99.90
23540;DHT22;11947;50.810;4.394;2022-10-30T15:48:14;19.70;99.90
23540;DHT22;11947;50.810;4.394;2022-10-30T15:50:44;19.70;99.90
23540;DHT22;11947;50.810;4.394;2022-10-30T15:53:22;19.50;99.90
23540;DHT22;11947;50.810;4.394;2022-10-30T15:55:49;19.60;99.90
23540;DHT22;11947;50.810;4.394;2022-10-30T15:58:19;19.50;99.90
23540;DHT22;11947;50.810;4.394;2022-10-30T16:00:59;19.50;99.90
23540;DHT22;11947;50.810;4.394;2022-10-30T16:03:29;19.40;99.90
23540;DHT22;11947;50.810;4.394;2022-10-30T16:06:15;19.20;99.90
23540;DHT22;11947;50.810;4.394;2022-10-30T16:08:46;19.20;99.90
23540;DHT22;11947;50.810;4.394;2022-10-30T16:11:13;19.20;99.90
23540;DHT22;11947;50.810;4.394;2022-10-30T16:13:40;19.20;99.90
23540;DHT22;11947;50.810;4.394;2022-10-30T16:16:28;19.20;99.90
23540;DHT22;11947;50.810;4.394;2022-10-30T16:18:59;19.20;99.90
23540;DHT22;11947;50.810;4.394;2022-10-30T16:21:29;19.10;99.90
23540;DHT22;11947;50.810;4.394;2022-10-30T16:24:16;19.00;99.90
23540;DHT22;11947;50.810;4.394;2022-10-30T16:26:44;19.10;99.90
23540;DHT22;11947;50.810;4.394;2022-10-30T16:31:44;18.90;99.90
23540;DHT22;11947;50.810;4.394;2022-10-30T16:36:50;18.90;99.90
23540;DHT22;11947;50.810;4.394;2022-10-30T16:39:16;18.90;99.90
23540;DHT22;11947;50.810;4.394;2022-10-30T16:41:43;18.80;99.90
23540;DHT22;11947;50.810;4.394;2022-10-30T16:46:46;18.90;99.90
23540;DHT22;11947;50.810;4.394;2022-10-30T16:49:22;18.90;99.90
23540;DHT22;11947;50.810;4.394;2022-10-30T16:51:59;18.80;99.90
23540;DHT22;11947;50.810;4.394;2022-10-30T16:54:37;18.70;99.90
23540;DHT22;11947;50.810;4.394;2022-10-30T16:57:12;18.60;99.90
23540;DHT22;11947;50.810;4.394;2022-10-30T16:59:46;18.60;99.90
23540;DHT22;11947;50.810;4.394;2022-10-30T17:02:15;18.60;99.90
23540;DHT22;11947;50.810;4.394;2022-10-30T17:04:44;18.50;99.90
23540;DHT22;11947;50.810;4.394;2022-10-30T17:07:21;18.40;99.90
23540;DHT22;11947;50.810;4.394;2022-10-30T17:09:49;18.40;99.90
23540;DHT22;11947;50.810;4.394;2022-10-30T17:12:25;18.20;99.90
23540;DHT22;11947;50.810;4.394;2022-10-30T17:17:33;18.10;99.90
23540;DHT22;11947;50.810;4.394;2022-10-30T17:20:12;18.20;99.90
23540;DHT22;11947;50.810;4.394;2022-10-30T17:22:51;18.20;99.90
23540;DHT22;11947;50.810;4.394;2022-10-30T17:25:37;18.10;99.90
23540;DHT22;11947;50.810;4.394;2022-10-30T17:28:04;18.20;99.90
23540;DHT22;11947;50.810;4.394;2022-10-30T17:30:41;18.10;99.90
23540;DHT22;11947;50.810;4.394;2022-10-30T17:35:47;18.00;99.90
23540;DHT22;11947;50.810;4.394;2022-10-30T17:38:17;17.80;99.90
23540;DHT22;11947;50.810;4.394;2022-10-30T17:40:45;17.70;99.90
23540;DHT22;11947;50.810;4.394;2022-10-30T17:43:11;17.70;99.90
23540;DHT22;11947;50.810;4.394;2022-10-30T17:45:41;17.70;99.90
23540;DHT22;11947;50.810;4.394;2022-10-30T17:48:15;17.70;99.90
23540;DHT22;11947;50.810;4.394;2022-10-30T17:50:42;17.60;99.90
23540;DHT22;11947;50.810;4.394;2022-10-30T17:53:22;17.60;99.90
23540;DHT22;11947;50.810;4.394;2022-10-30T17:56:13;17.60;99.90
23540;DHT22;11947;50.810;4.394;2022-10-30T17:58:40;17.50;99.90
23540;DHT22;11947;50.810;4.394;2022-10-30T18:01:06;17.30;99.90
23540;DHT22;11947;50.810;4.394;2022-10-30T18:03:32;17.30;99.90
23540;DHT22;11947;50.810;4.394;2022-10-30T18:06:00;17.30;99.90
23540;DHT22;11947;50.810;4.394;2022-10-30T18:08:26;17.30;99.90
23540;DHT22;11947;50.810;4.394;2022-10-30T18:10:52;17.20;99.90
23540;DHT22;11947;50.810;4.394;2022-10-30T18:13:18;17.30;99.90
23540;DHT22;11947;50.810;4.394;2022-10-30T18:15:51;17.20;99.90
23540;DHT22;11947;50.810;4.394;2022-10-30T18:18:19;17.20;99.90
23540;DHT22;11947;50.810;4.394;2022-10-30T18:20:45;17.20;99.90